createdAt,value
2018-03-06T00:00:45.882Z,0.30
2018-03-06T00:03:12.267Z,0.50
2018-03-06T00:05:38.662Z,0.10
2018-03-06T00:08:05.789Z,-0.20
2018-03-06T00:10:32.262Z,-0.20
2018-03-06T00:12:58.709Z,0.00
2018-03-06T00:15:25.130Z,0.30
2018-03-06T00:17:51.495Z,0.10
2018-03-06T00:20:17.864Z,0.10
2018-03-06T00:22:44.998Z,0.40
2018-03-06T00:25:13.068Z,0.50
2018-03-06T00:27:40.238Z,0.30
2018-03-06T00:30:07.359Z,0.00
2018-03-06T00:32:33.751Z,0.00
2018-03-06T00:35:00.129Z,0.10
2018-03-06T00:37:26.554Z,0.10
2018-03-06T00:39:52.936Z,0.00
2018-03-06T00:42:19.321Z,0.20
2018-03-06T00:44:45.698Z,0.10
2018-03-06T00:47:12.112Z,0.20
2018-03-06T00:49:39.214Z,0.40
2018-03-06T00:52:06.343Z,0.60
2018-03-06T00:54:33.467Z,0.70
2018-03-06T00:57:00.590Z,0.40
2018-03-06T00:59:26.966Z,0.40
2018-03-06T01:01:53.346Z,0.10
2018-03-06T01:04:19.751Z,0.00
2018-03-06T01:06:46.137Z,-0.30
2018-03-06T01:09:13.271Z,-0.20
2018-03-06T01:11:39.639Z,-0.20
2018-03-06T01:14:06.029Z,-0.50
2018-03-06T01:16:32.418Z,-0.30
2018-03-06T01:18:58.807Z,-0.20
2018-03-06T01:21:25.997Z,0.00
2018-03-06T01:23:52.374Z,-0.10
2018-03-06T01:26:18.824Z,0.00
2018-03-06T01:28:45.397Z,0.40
2018-03-06T01:31:11.774Z,0.50
2018-03-06T01:33:38.158Z,0.50
2018-03-06T01:36:04.556Z,0.30
2018-03-06T01:38:31.663Z,0.10
2018-03-06T01:40:58.034Z,0.10
2018-03-06T01:43:24.400Z,0.20
2018-03-06T01:45:50.798Z,0.10
2018-03-06T01:48:17.931Z,-0.40
2018-03-06T01:50:44.344Z,-0.40
2018-03-06T01:53:10.710Z,-0.60
2018-03-06T01:55:37.822Z,-0.40
2018-03-06T01:58:04.196Z,-0.40
2018-03-06T02:00:31.316Z,0.10
2018-03-06T02:02:57.698Z,0.10
2018-03-06T02:05:24.071Z,0.30
2018-03-06T02:07:50.444Z,0.50
2018-03-06T02:10:17.585Z,0.10
2018-03-06T02:12:44.712Z,-0.10
2018-03-06T02:15:11.101Z,-0.10
2018-03-06T02:17:37.471Z,-0.40
2018-03-06T02:20:04.682Z,-0.50
2018-03-06T02:22:31.065Z,-0.50
2018-03-06T02:24:57.454Z,-0.20
2018-03-06T02:27:23.880Z,-0.20
2018-03-06T02:30:03.125Z,0.10
2018-03-06T02:32:29.636Z,0.10
2018-03-06T02:34:56.045Z,-0.20
2018-03-06T02:37:23.187Z,-0.30
2018-03-06T02:39:50.316Z,-0.30
2018-03-06T02:42:16.694Z,-0.30
2018-03-06T02:44:43.083Z,-0.20
2018-03-06T02:47:09.507Z,-0.30
2018-03-06T02:49:35.836Z,-0.40
2018-03-06T02:52:02.274Z,-0.30
2018-03-06T02:54:28.656Z,-0.40
2018-03-06T02:56:55.026Z,-0.60
2018-03-06T02:59:21.394Z,-0.50
2018-03-06T03:01:48.566Z,-0.50
2018-03-06T03:04:15.686Z,-0.20
2018-03-06T03:06:42.067Z,-0.20
2018-03-06T03:09:08.462Z,0.30
2018-03-06T03:11:35.599Z,-0.60
2018-03-06T03:14:01.995Z,-0.60
2018-03-06T03:16:28.376Z,-0.30
2018-03-06T03:18:55.489Z,-0.10
2018-03-06T03:21:21.880Z,-0.10
2018-03-06T03:23:48.289Z,0.40
2018-03-06T03:26:15.410Z,0.30
2018-03-06T03:28:41.777Z,0.30
2018-03-06T03:31:08.899Z,0.80
2018-03-06T03:33:35.297Z,0.80
2018-03-06T03:36:01.677Z,0.20
2018-03-06T03:38:28.807Z,0.20
2018-03-06T03:40:55.184Z,0.10
2018-03-06T03:43:21.547Z,0.20
2018-03-06T03:45:48.022Z,0.30
2018-03-06T03:48:15.043Z,0.20
2018-03-06T03:50:42.910Z,0.50
2018-03-06T03:53:09.357Z,0.50
2018-03-06T03:55:35.811Z,0.60
2018-03-06T03:58:02.955Z,0.80
2018-03-06T04:00:30.072Z,0.70
2018-03-06T04:02:56.806Z,0.70
2018-03-06T04:05:23.186Z,0.90
2018-03-06T04:07:49.563Z,0.60
2018-03-06T04:10:15.976Z,0.50
2018-03-06T04:12:42.354Z,0.60
2018-03-06T04:15:08.762Z,0.60
2018-03-06T04:17:35.150Z,0.60
2018-03-06T04:20:01.542Z,0.90
2018-03-06T04:22:27.951Z,0.80
2018-03-06T04:24:54.334Z,1.00
2018-03-06T04:27:21.460Z,0.30
2018-03-06T04:29:47.827Z,0.30
2018-03-06T04:32:14.194Z,0.50
2018-03-06T04:34:40.574Z,0.50
2018-03-06T04:37:07.691Z,0.80
2018-03-06T04:39:34.094Z,0.80
2018-03-06T04:42:00.486Z,0.80
2018-03-06T04:44:26.889Z,0.80
2018-03-06T04:46:53.267Z,0.90
2018-03-06T04:49:19.653Z,0.70
2018-03-06T04:51:46.029Z,0.70
2018-03-06T04:54:12.579Z,0.90
2018-03-06T04:56:39.055Z,1.10
2018-03-06T04:59:05.426Z,1.10
2018-03-06T05:01:31.813Z,1.40
2018-03-06T05:03:58.213Z,1.20
2018-03-06T05:06:24.656Z,0.90
2018-03-06T05:08:51.042Z,1.20
2018-03-06T05:11:18.189Z,1.10
2018-03-06T05:13:45.303Z,1.10
2018-03-06T05:16:11.675Z,1.10
2018-03-06T05:18:38.805Z,1.20
2018-03-06T05:21:05.209Z,1.20
2018-03-06T05:23:31.579Z,1.00
2018-03-06T05:25:58.695Z,1.10
2018-03-06T05:28:25.094Z,1.00
2018-03-06T05:30:51.479Z,0.90
2018-03-06T05:33:17.859Z,1.00
2018-03-06T05:35:44.261Z,1.20
2018-03-06T05:38:11.392Z,1.40
2018-03-06T05:40:38.574Z,1.30
2018-03-06T05:43:04.970Z,1.30
2018-03-06T05:45:31.348Z,1.40
2018-03-06T05:47:57.722Z,1.50
2018-03-06T05:50:24.109Z,1.40
2018-03-06T05:52:50.474Z,1.50
2018-03-06T05:55:16.848Z,1.20
2018-03-06T05:57:44.010Z,0.80
2018-03-06T06:00:10.446Z,0.80
2018-03-06T06:02:37.549Z,1.10
2018-03-06T06:05:03.942Z,1.00
2018-03-06T06:07:30.511Z,0.70
2018-03-06T06:09:56.914Z,0.80
2018-03-06T06:12:23.295Z,0.70
2018-03-06T06:14:49.732Z,1.00
2018-03-06T06:17:16.134Z,0.70
2018-03-06T06:19:42.523Z,1.00
2018-03-06T06:22:08.869Z,1.10
2018-03-06T06:24:35.349Z,1.30
2018-03-06T06:27:03.097Z,1.00
2018-03-06T06:29:29.433Z,1.00
2018-03-06T06:31:55.775Z,1.20
2018-03-06T06:34:22.135Z,0.90
2018-03-06T06:36:48.540Z,0.60
2018-03-06T06:39:15.453Z,0.80
2018-03-06T06:41:41.834Z,0.60
2018-03-06T06:44:08.930Z,0.50
2018-03-06T06:46:35.280Z,0.50
2018-03-06T06:49:01.612Z,0.10
2018-03-06T06:51:27.976Z,0.50
2018-03-06T06:53:54.344Z,0.20
2018-03-06T06:56:20.693Z,0.60
2018-03-06T06:58:47.025Z,0.90
2018-03-06T07:01:13.387Z,1.10
2018-03-06T07:03:40.033Z,0.90
2018-03-06T07:06:06.388Z,0.80
2018-03-06T07:08:33.493Z,1.40
2018-03-06T07:10:59.891Z,1.40
2018-03-06T07:13:26.249Z,1.00
2018-03-06T07:15:52.582Z,0.90
2018-03-06T07:18:18.907Z,1.20
2018-03-06T07:20:45.212Z,1.40
2018-03-06T07:23:11.549Z,0.70
2018-03-06T07:25:37.891Z,0.50
2018-03-06T07:28:04.209Z,0.10
2018-03-06T07:30:30.542Z,0.10
2018-03-06T07:32:56.872Z,0.40
2018-03-06T07:35:23.213Z,0.70
2018-03-06T07:37:49.529Z,0.90
2018-03-06T07:40:15.865Z,0.80
2018-03-06T07:42:42.211Z,0.90
2018-03-06T07:45:08.548Z,1.00
2018-03-06T07:47:34.882Z,1.20
2018-03-06T07:50:01.214Z,0.90
2018-03-06T07:52:27.541Z,1.20
2018-03-06T07:54:53.868Z,0.90
2018-03-06T07:57:20.190Z,0.90
2018-03-06T07:59:46.529Z,0.70
2018-03-06T08:02:12.885Z,0.40
2018-03-06T08:04:39.279Z,0.20
2018-03-06T08:07:05.614Z,0.40
2018-03-06T08:09:32.004Z,0.70
2018-03-06T08:11:58.361Z,0.80
2018-03-06T08:14:24.730Z,0.60
2018-03-06T08:16:51.121Z,0.80
2018-03-06T08:19:17.458Z,1.00
2018-03-06T08:21:43.793Z,1.20
2018-03-06T08:24:10.172Z,1.30
2018-03-06T08:26:36.547Z,1.50
2018-03-06T08:29:02.930Z,1.10
2018-03-06T08:31:29.307Z,1.30
2018-03-06T08:33:55.671Z,1.00
2018-03-06T08:36:21.989Z,0.90
2018-03-06T08:38:48.363Z,0.80
2018-03-06T08:41:15.467Z,1.50
2018-03-06T08:43:41.819Z,1.50
2018-03-06T08:46:08.198Z,1.40
2018-03-06T08:48:34.544Z,1.20
2018-03-06T08:51:00.874Z,0.90
2018-03-06T08:53:27.210Z,0.90
2018-03-06T08:55:53.619Z,1.10
2018-03-06T08:58:20.918Z,0.90
2018-03-06T09:00:47.259Z,0.90
2018-03-06T09:03:13.568Z,1.40
2018-03-06T09:05:39.958Z,1.80
2018-03-06T09:08:07.055Z,1.70
2018-03-06T09:10:33.388Z,1.70
2018-03-06T09:12:59.705Z,1.50
2018-03-06T09:15:26.030Z,1.60
2018-03-06T09:17:52.354Z,1.40
2018-03-06T09:20:18.683Z,1.40
2018-03-06T09:22:45.747Z,2.00
2018-03-06T09:25:12.077Z,2.00
2018-03-06T09:27:39.136Z,1.60
2018-03-06T09:30:06.238Z,1.40
2018-03-06T09:32:33.298Z,1.40
2018-03-06T09:35:00.609Z,1.30
2018-03-06T09:37:26.954Z,1.30
2018-03-06T09:42:19.638Z,1.40
2018-03-06T09:44:45.966Z,1.50
2018-03-06T09:47:13.210Z,1.80
2018-03-06T09:49:39.610Z,1.80
2018-03-06T09:52:05.984Z,1.60
2018-03-06T09:54:32.362Z,1.80
2018-03-06T09:56:58.748Z,1.90
2018-03-06T09:59:25.091Z,2.10
2018-03-06T10:01:51.685Z,1.80
2018-03-06T10:04:18.050Z,1.70
2018-03-06T10:06:44.410Z,1.80
2018-03-06T10:09:10.770Z,2.00
2018-03-06T10:11:38.112Z,2.10
2018-03-06T10:14:04.476Z,2.10
2018-03-06T10:16:31.648Z,2.30
2018-03-06T10:18:58.021Z,2.20
2018-03-06T10:21:24.397Z,1.80
2018-03-06T10:23:51.516Z,1.60
2018-03-06T10:26:18.616Z,1.90
2018-03-06T10:28:44.993Z,1.90
2018-03-06T10:31:11.395Z,1.80
2018-03-06T10:33:37.724Z,1.60
2018-03-06T10:36:04.148Z,1.50
2018-03-06T10:38:30.490Z,1.40
2018-03-06T10:40:56.813Z,1.20
2018-03-06T10:43:23.141Z,1.20
2018-03-06T10:45:49.548Z,1.00
2018-03-06T10:48:16.696Z,0.80
2018-03-06T10:50:43.264Z,0.80
2018-03-06T10:53:09.591Z,1.10
2018-03-06T10:55:35.937Z,1.30
2018-03-06T10:58:02.930Z,1.10
2018-03-06T11:00:36.228Z,1.10
2018-03-06T11:03:03.336Z,1.30
2018-03-06T11:05:29.729Z,1.30
2018-03-06T11:07:56.065Z,1.10
2018-03-06T11:10:22.400Z,1.10
2018-03-06T11:12:48.711Z,1.10
2018-03-06T11:15:15.783Z,1.00
2018-03-06T11:17:42.118Z,1.00
2018-03-06T11:20:08.440Z,1.00
2018-03-06T11:22:34.770Z,1.30
2018-03-06T11:25:01.117Z,1.80
2018-03-06T11:27:27.476Z,1.90
2018-03-06T11:29:53.832Z,1.70
2018-03-06T11:32:20.919Z,1.80
2018-03-06T11:34:47.263Z,1.70
2018-03-06T11:37:13.646Z,1.90
2018-03-06T11:39:40.737Z,1.80
2018-03-06T11:42:07.072Z,1.80
2018-03-06T11:44:33.465Z,1.40
2018-03-06T11:46:59.821Z,1.50
2018-03-06T11:49:26.198Z,1.40
2018-03-06T11:51:52.583Z,1.80
2018-03-06T11:54:18.952Z,1.90
2018-03-06T11:56:45.327Z,1.90
2018-03-06T11:59:11.690Z,1.90
2018-03-06T12:01:38.058Z,2.30
2018-03-06T12:04:05.147Z,2.40
2018-03-06T12:06:31.497Z,2.40
2018-03-06T12:08:57.874Z,2.30
2018-03-06T12:11:24.228Z,2.60
2018-03-06T12:13:50.558Z,2.20
2018-03-06T12:16:17.710Z,2.00
2018-03-06T12:18:44.070Z,2.00
2018-03-06T12:21:10.442Z,1.60
2018-03-06T12:23:37.542Z,1.80
2018-03-06T12:26:03.915Z,1.80
2018-03-06T12:28:30.249Z,1.60
2018-03-06T12:30:56.610Z,1.30
2018-03-06T12:33:22.951Z,1.50
2018-03-06T12:35:49.290Z,1.70
2018-03-06T12:38:15.699Z,2.00
2018-03-06T12:40:42.821Z,2.40
2018-03-06T12:43:09.199Z,2.40
2018-03-06T12:45:35.592Z,2.60
2018-03-06T12:48:02.736Z,2.20
2018-03-06T12:50:29.871Z,2.10
2018-03-06T12:52:56.991Z,2.00
2018-03-06T12:55:23.388Z,2.00
2018-03-06T12:57:50.534Z,1.70
2018-03-06T13:00:17.906Z,1.70
2018-03-06T13:02:44.298Z,2.10
2018-03-06T13:05:10.696Z,2.00
2018-03-06T13:07:37.068Z,1.80
2018-03-06T13:10:03.480Z,1.80
2018-03-06T13:12:29.861Z,2.00
2018-03-06T13:14:56.236Z,2.20
2018-03-06T13:17:22.607Z,2.00
2018-03-06T13:19:49.780Z,2.60
2018-03-06T13:22:16.226Z,2.60
2018-03-06T13:24:42.606Z,2.40
2018-03-06T13:27:10.486Z,1.80
2018-03-06T13:29:36.915Z,1.80
2018-03-06T13:32:04.172Z,1.90
2018-03-06T13:34:30.588Z,1.80
2018-03-06T13:36:57.716Z,1.80
2018-03-06T13:39:24.177Z,1.80
2018-03-06T13:41:51.330Z,1.90
2018-03-06T13:44:18.456Z,2.30
2018-03-06T13:46:44.869Z,2.30
2018-03-06T13:49:11.277Z,2.90
2018-03-06T13:51:37.662Z,3.30
2018-03-06T13:54:04.028Z,2.80
2018-03-06T13:56:31.154Z,3.10
2018-03-06T13:58:58.287Z,3.00
2018-03-06T14:01:24.680Z,3.00
2018-03-06T14:03:51.066Z,2.70
2018-03-06T14:06:18.183Z,2.80
2018-03-06T14:08:44.723Z,2.80
2018-03-06T14:11:11.134Z,2.10
2018-03-06T14:13:37.503Z,1.80
2018-03-06T14:16:03.947Z,1.80
2018-03-06T14:18:31.086Z,2.20
2018-03-06T14:20:57.481Z,2.20
2018-03-06T14:23:23.876Z,2.40
2018-03-06T14:25:50.273Z,2.40
2018-03-06T14:28:16.681Z,2.50
2018-03-06T14:30:43.102Z,2.40
2018-03-06T14:33:09.504Z,2.50
2018-03-06T14:35:36.619Z,2.70
2018-03-06T14:38:03.002Z,2.70
2018-03-06T14:40:29.402Z,2.60
2018-03-06T14:42:56.663Z,2.90
2018-03-06T14:45:23.872Z,2.90
2018-03-06T14:47:50.246Z,2.90
2018-03-06T14:50:17.519Z,3.00
2018-03-06T14:52:43.912Z,3.00
2018-03-06T14:55:10.284Z,3.10
2018-03-06T14:57:37.419Z,3.40
2018-03-06T15:00:03.899Z,3.40
2018-03-06T15:02:30.295Z,3.50
2018-03-06T15:04:56.761Z,3.30
2018-03-06T15:07:23.164Z,2.70
2018-03-06T15:09:49.547Z,2.70
2018-03-06T15:12:15.932Z,2.60
2018-03-06T15:14:42.327Z,2.10
2018-03-06T15:17:09.455Z,1.80
2018-03-06T15:19:35.822Z,1.70
2018-03-06T15:22:02.998Z,2.10
2018-03-06T15:24:29.379Z,2.10
2018-03-06T15:26:55.756Z,2.30
2018-03-06T15:29:22.159Z,2.60
2018-03-06T15:31:49.292Z,2.40
2018-03-06T15:34:15.703Z,2.40
2018-03-06T15:36:42.078Z,2.50
2018-03-06T15:39:09.201Z,2.70
2018-03-06T15:41:35.568Z,2.70
2018-03-06T15:44:02.779Z,2.40
2018-03-06T15:46:29.253Z,2.30
2018-03-06T15:48:56.379Z,2.70
2018-03-06T15:51:22.763Z,2.70
2018-03-06T15:53:49.173Z,2.80
2018-03-06T15:56:15.552Z,2.60
2018-03-06T15:58:41.979Z,2.40
2018-03-06T16:01:08.373Z,2.00
2018-03-06T16:03:35.495Z,1.90
2018-03-06T16:06:02.656Z,2.00
2018-03-06T16:08:29.754Z,2.20
2018-03-06T16:10:56.142Z,2.20
2018-03-06T16:13:23.260Z,2.40
2018-03-06T16:15:49.647Z,2.40
2018-03-06T16:18:16.022Z,2.70
2018-03-06T16:20:42.404Z,2.20
2018-03-06T16:23:08.832Z,2.10
2018-03-06T16:25:35.254Z,2.50
2018-03-06T16:28:02.390Z,2.70
2018-03-06T16:30:29.529Z,2.90
2018-03-06T16:32:55.960Z,2.90
2018-03-06T16:35:23.124Z,3.20
2018-03-06T16:37:50.272Z,3.20
2018-03-06T16:40:17.472Z,3.20
2018-03-06T16:42:43.895Z,3.20
2018-03-06T16:45:10.259Z,3.30
2018-03-06T16:47:36.760Z,3.30
2018-03-06T16:50:03.989Z,3.20
2018-03-06T16:52:31.103Z,3.20
2018-03-06T16:54:57.757Z,3.20
2018-03-06T16:57:24.277Z,3.20
2018-03-06T16:59:50.684Z,3.00
2018-03-06T17:02:17.105Z,3.00
2018-03-06T17:04:43.540Z,3.00
2018-03-06T17:07:09.913Z,2.90
2018-03-06T17:09:37.080Z,2.70
2018-03-06T17:12:04.204Z,2.60
2018-03-06T17:14:30.611Z,2.60
2018-03-06T17:16:57.051Z,2.50
2018-03-06T17:19:23.467Z,2.30
2018-03-06T17:21:49.844Z,2.20
2018-03-06T17:24:16.215Z,2.30
2018-03-06T17:26:42.628Z,2.40
2018-03-06T17:29:09.075Z,2.40
2018-03-06T17:31:35.465Z,2.60
2018-03-06T17:34:01.868Z,2.60
2018-03-06T17:36:28.334Z,2.70
2018-03-06T17:38:55.485Z,2.50
2018-03-06T17:41:21.883Z,2.50
2018-03-06T17:43:48.363Z,2.40
2018-03-06T17:46:15.757Z,2.40
2018-03-06T17:48:43.299Z,2.50
2018-03-06T17:51:09.684Z,2.60
2018-03-06T17:53:36.080Z,2.70
2018-03-06T17:56:02.464Z,2.70
2018-03-06T17:58:31.019Z,2.60
2018-03-06T18:00:57.440Z,2.60
2018-03-06T18:03:23.903Z,2.50
2018-03-06T18:05:50.303Z,2.10
2018-03-06T18:08:16.710Z,2.00
2018-03-06T18:10:46.151Z,2.00
2018-03-06T18:13:12.576Z,2.10
2018-03-06T18:15:39.037Z,2.10
2018-03-06T18:18:06.320Z,1.70
2018-03-06T18:20:33.480Z,2.10
2018-03-06T18:23:00.778Z,2.10
2018-03-06T18:25:27.171Z,1.80
2018-03-06T18:27:53.571Z,1.70
2018-03-06T18:30:20.737Z,1.30
2018-03-06T18:32:47.867Z,1.40
2018-03-06T18:35:15.051Z,1.60
2018-03-06T18:37:41.450Z,1.60
2018-03-06T18:40:08.604Z,1.70
2018-03-06T18:42:35.782Z,1.70
2018-03-06T18:45:02.183Z,1.70
2018-03-06T18:47:29.319Z,2.00
2018-03-06T18:50:02.865Z,2.00
2018-03-06T18:52:29.264Z,2.00
2018-03-06T18:54:56.438Z,2.40
2018-03-06T18:57:22.864Z,2.40
2018-03-06T19:03:06.569Z,2.80
2018-03-06T19:05:57.942Z,2.80
2018-03-06T19:08:24.440Z,2.70
2018-03-06T19:10:50.838Z,2.80
2018-03-06T19:13:17.247Z,2.90
2018-03-06T19:15:43.654Z,2.80
2018-03-06T19:18:10.781Z,2.60
2018-03-06T19:20:37.166Z,2.60
2018-03-06T19:23:03.567Z,2.50
2018-03-06T19:25:30.683Z,2.60
2018-03-06T19:27:57.104Z,2.60
2018-03-06T19:30:23.512Z,2.50
2018-03-06T19:32:49.914Z,2.50
2018-03-06T19:35:17.055Z,2.40
2018-03-06T19:37:44.274Z,2.50
2018-03-06T19:40:10.683Z,2.40
2018-03-06T19:42:37.121Z,2.60
2018-03-06T19:45:03.554Z,2.70
2018-03-06T19:47:30.707Z,2.70
2018-03-06T19:49:57.141Z,2.70
2018-03-06T19:52:23.770Z,2.70
2018-03-06T19:54:50.190Z,2.80
2018-03-06T19:57:16.651Z,2.80
2018-03-06T19:59:43.084Z,2.70
2018-03-06T20:02:09.561Z,2.70
2018-03-06T20:04:36.726Z,2.70
2018-03-06T20:07:03.150Z,2.70
2018-03-06T20:09:30.327Z,2.70
2018-03-06T20:11:56.724Z,2.70
2018-03-06T20:14:30.091Z,2.90
2018-03-06T20:16:56.552Z,2.80
2018-03-06T20:19:29.090Z,2.90
2018-03-06T20:21:55.532Z,2.80
2018-03-06T20:24:27.958Z,2.90
2018-03-06T20:26:54.336Z,2.90
2018-03-06T20:29:20.739Z,2.80
2018-03-06T20:32:03.895Z,2.80
2018-03-06T20:34:30.391Z,2.80
2018-03-06T20:36:56.806Z,2.80
2018-03-06T20:39:29.411Z,2.80
2018-03-06T20:41:55.841Z,2.90
2018-03-06T20:44:22.275Z,2.70
2018-03-06T20:46:54.853Z,2.70
2018-03-06T20:49:21.284Z,2.80
2018-03-06T20:51:47.675Z,2.90
2018-03-06T20:54:20.291Z,2.90
2018-03-06T20:56:46.677Z,2.80
2018-03-06T20:59:13.088Z,2.60
2018-03-06T21:01:39.509Z,2.70
2018-03-06T21:04:05.988Z,2.70
2018-03-06T21:06:33.118Z,2.70
2018-03-06T21:08:59.535Z,2.70
2018-03-06T21:11:25.900Z,2.70
2018-03-06T21:13:53.082Z,2.70
2018-03-06T21:16:19.484Z,2.70
2018-03-06T21:18:45.891Z,2.60
2018-03-06T21:21:12.340Z,2.60
2018-03-06T21:23:39.474Z,2.60
2018-03-06T21:26:05.924Z,2.50
2018-03-06T21:28:32.322Z,2.70
2018-03-06T21:30:58.724Z,2.70
2018-03-06T21:33:25.155Z,2.60
2018-03-06T21:35:51.557Z,2.30
2018-03-06T21:38:18.007Z,2.30
2018-03-06T21:40:45.172Z,2.50
2018-03-06T21:43:11.591Z,2.50
2018-03-06T21:45:37.998Z,2.60
2018-03-06T21:48:04.370Z,2.60
2018-03-06T21:50:30.854Z,2.70
2018-03-06T21:55:23.544Z,2.50
2018-03-06T21:57:50.687Z,2.50
2018-03-06T22:00:17.808Z,2.30
2018-03-06T22:02:44.221Z,2.30
2018-03-06T22:05:10.696Z,2.40
2018-03-06T22:07:37.815Z,2.30
2018-03-06T22:10:04.222Z,2.30
2018-03-06T22:12:30.617Z,2.20
2018-03-06T22:14:57.754Z,2.00
2018-03-06T22:17:24.151Z,1.90
2018-03-06T22:19:50.552Z,2.00
2018-03-06T22:22:16.923Z,2.00
2018-03-06T22:24:43.323Z,2.00
2018-03-06T22:27:09.739Z,2.00
2018-03-06T22:29:36.907Z,1.20
2018-03-06T22:32:03.313Z,1.20
2018-03-06T22:34:30.520Z,0.90
2018-03-06T22:36:56.908Z,0.90
2018-03-06T22:39:24.063Z,0.50
2018-03-06T22:41:50.468Z,0.50
2018-03-06T22:44:17.594Z,0.60
2018-03-06T22:46:43.970Z,0.60
2018-03-06T22:49:10.363Z,0.90
2018-03-06T22:51:36.809Z,1.00
2018-03-06T22:54:03.208Z,1.00
2018-03-06T22:56:29.607Z,0.90
2018-03-06T22:58:56.015Z,1.10
2018-03-06T23:01:23.151Z,1.00
2018-03-06T23:03:49.517Z,1.00
2018-03-06T23:06:15.912Z,1.20
2018-03-06T23:08:42.300Z,1.50
2018-03-06T23:11:08.717Z,1.60
2018-03-06T23:13:35.148Z,1.70
2018-03-06T23:16:01.603Z,1.80
2018-03-06T23:18:27.977Z,1.70
2018-03-06T23:20:54.371Z,1.50
2018-03-06T23:23:20.775Z,1.30
2018-03-06T23:25:47.133Z,1.20
2018-03-06T23:28:13.503Z,1.20
2018-03-06T23:30:40.056Z,1.10
2018-03-06T23:33:06.472Z,1.00
2018-03-06T23:35:32.885Z,1.00
2018-03-06T23:37:59.259Z,0.80
2018-03-06T23:40:25.731Z,0.60
2018-03-06T23:42:52.119Z,0.70
2018-03-06T23:45:19.261Z,0.60
2018-03-06T23:47:46.367Z,0.70
2018-03-06T23:50:12.763Z,0.70
2018-03-06T23:52:39.163Z,0.70
2018-03-06T23:55:06.312Z,0.70
2018-03-06T23:57:32.692Z,0.70
2018-03-06T23:59:59.091Z,0.60
